Ana Sayfa
METAR-TAF:

METAR-TAF

Havaalanları :

Salt Lake City International Airport

Salt Lake City, Utah, Amerika Birleşik Devletleri

Enlem: 40-46-41N, Boylam: 111-58-10W, yükseklik: 1288 m

Güncel hava durumu gözlemi

Rapor saat 02:54 UTC de 58 dakika önce yapıldı.
Rüzgar güneydoğudan 3 kt
Sıcaklık 11°C
Nem 58%
Basınç 1025 hPa
Görüş mesafesi: 16.1 km
Açık gökyüzü

METAR: KSLC 190254Z 14003KT 10SM CLR 11/03 A3027 RMK AO2 SLP232 T01110028 53010

Saat: 21:52 (03:52 UTC)

Tahmin

Rapor saat 02:50 UTC de 1 saat ve 2 dakika önce yapıldı.
Ayın 19'si saat 03 UTC'den ayın 20'si saat 06 UTC'ye kadar geçerli Tahmin
Rüzgar güney/güneydoğudan 5 kt
Görüş mesafesi: 10 km
Açık gökyüzü
Ayın 19'si saat 1900 UTC'den
Rüzgar kuzey/kuzeybatıdan 7 kt
Görüş mesafesi: 10 km
Açık gökyüzü
Ayın 20'si saat 0300 UTC'den
Rüzgar güney/güneydoğudan 5 kt
Görüş mesafesi: 10 km
Açık gökyüzü

TAF: KSLC 190250Z 1903/2006 15005KT P6SM SKC FM191900 33007KT P6SM SKC FM200300 15005KT P6SM SKC

4.000'den fazla havaalanı için hava durumu gözlemleri ve tahminleri (METAR ve TAF raporları).

Kullanılabilir istasyonlar harita üzerinde sarı ve kırmızı noktalarla gösterilir.

İstasyonun adını görmek için fareyi noktanın üzerinde gezdirin.

Sonrasında hava gözlem ve tahminlerini görmek için tıklayın.

Haritayı değiştirmek için: yaklaştırmak için siyah artı işaretli yeşil düğmeye ve uzaklaştırmak için de eksi işaretli düğmeye hızla tıklayın; bitişik haritalar için yeşil okları kullanın.


METAR-TAF: